Terminal Aerodrome Forecast
Issued by NWS

Home | Current Version | Previous Version | Text Only | Print | Product List | Glossary On
Versions: 1 2 3 4 5 6 7 8 9 10 11 12 13 14 15 16 17 18 19
000
FTUS41 KBGM 070531
TAFELM
TAF
KELM 070531Z 0706/0806 00000KT 1/4SM FG OVC002
      TEMPO 0712/0714 2SM BR OVC008
     FM071400 22005KT P6SM SCT250=

USA.gov is the U.S. government's official web portal to all federal, state and local government web resources and services.